Archival Weather

Chicago O'Hare International

Chicago, Illinois (KORD)

Report from: Tuesday, December 6, 2022 11:00 PM CST
Current time: Saturday, February 4, 2023 11:26 PM CST

Current weather
Weather history
Weather forecast

Present weatherMist
Temperature3.3°C (37.9°F)
Wind chill1.3°C (34.4°F)
Dew point1.1°C (34.0°F)
Winds 4 kts (2.1 m/s, 4.6 mph) North (350°)
Visibility4 mi. (6.4 km)
Clouds Ceiling: Overcast 1,500 ft. (457 m)
Altimeter30.08 in.Hg (1019 mB)
Relative humidity85 %
Density altitude-1,503 ft. (-458 m)
Remarks Automated weather observing station with precipitation discriminator
Flight conditions Marginal Visual Meteorological Conditions
Raw dataKORD 070500Z 35004KT 4SM BR OVC015 03/01 A3008 RMK AO2 T00330011
An unhandled exception has occurred. See browser dev tools for details. Reload 🗙